sensor_id;sensor_type;location;lat;lon;timestamp;pressure;altitude;pressure_sealevel;temperature;humidity
17054;BME280;8643;48.824;11.422;2022-11-15T00:01:39;96906.38;;;2.88;100.00
17054;BME280;8643;48.824;11.422;2022-11-15T00:04:27;96902.22;;;3.01;100.00
17054;BME280;8643;48.824;11.422;2022-11-15T00:07:14;96904.66;;;3.03;100.00
17054;BME280;8643;48.824;11.422;2022-11-15T00:10:21;96890.94;;;2.94;100.00
17054;BME280;8643;48.824;11.422;2022-11-15T00:13:10;96896.63;;;2.92;100.00
17054;BME280;8643;48.824;11.422;2022-11-15T00:15:58;96892.56;;;2.95;100.00
17054;BME280;8643;48.824;11.422;2022-11-15T00:18:47;96895.50;;;2.99;100.00
17054;BME280;8643;48.824;11.422;2022-11-15T00:21:36;96900.34;;;3.02;100.00
17054;BME280;8643;48.824;11.422;2022-11-15T00:24:23;96891.41;;;3.01;100.00
17054;BME280;8643;48.824;11.422;2022-11-15T00:27:11;96894.03;;;3.11;100.00
17054;BME280;8643;48.824;11.422;2022-11-15T00:29:58;96896.69;;;3.17;100.00
17054;BME280;8643;48.824;11.422;2022-11-15T00:32:46;96886.72;;;3.12;100.00
17054;BME280;8643;48.824;11.422;2022-11-15T00:35:36;96890.84;;;3.04;100.00
17054;BME280;8643;48.824;11.422;2022-11-15T00:38:23;96884.41;;;3.00;100.00
17054;BME280;8643;48.824;11.422;2022-11-15T00:41:10;96885.25;;;2.96;100.00
17054;BME280;8643;48.824;11.422;2022-11-15T00:43:57;96888.50;;;2.92;100.00
17054;BME280;8643;48.824;11.422;2022-11-15T00:46:45;96890.97;;;2.89;100.00
17054;BME280;8643;48.824;11.422;2022-11-15T00:49:32;96882.88;;;2.89;100.00
17054;BME280;8643;48.824;11.422;2022-11-15T00:52:21;96876.97;;;2.82;100.00
17054;BME280;8643;48.824;11.422;2022-11-15T00:55:13;96873.47;;;2.81;100.00
17054;BME280;8643;48.824;11.422;2022-11-15T00:58:02;96875.59;;;2.84;100.00
17054;BME280;8643;48.824;11.422;2022-11-15T01:00:49;96869.41;;;2.84;100.00
17054;BME280;8643;48.824;11.422;2022-11-15T01:03:46;96867.53;;;2.79;100.00
17054;BME280;8643;48.824;11.422;2022-11-15T01:06:42;96857.50;;;2.80;100.00
17054;BME280;8643;48.824;11.422;2022-11-15T01:09:33;96851.41;;;2.64;100.00
17054;BME280;8643;48.824;11.422;2022-11-15T01:12:21;96848.00;;;2.53;100.00
17054;BME280;8643;48.824;11.422;2022-11-15T01:15:08;96856.69;;;2.50;100.00
17054;BME280;8643;48.824;11.422;2022-11-15T01:18:02;96852.84;;;2.56;100.00
17054;BME280;8643;48.824;11.422;2022-11-15T01:20:54;96852.75;;;2.66;100.00
17054;BME280;8643;48.824;11.422;2022-11-15T01:23:41;96855.47;;;2.66;100.00
17054;BME280;8643;48.824;11.422;2022-11-15T01:26:30;96858.72;;;2.63;100.00
17054;BME280;8643;48.824;11.422;2022-11-15T01:29:17;96847.63;;;2.65;100.00
17054;BME280;8643;48.824;11.422;2022-11-15T01:32:04;96844.41;;;2.63;100.00
17054;BME280;8643;48.824;11.422;2022-11-15T01:34:51;96838.50;;;2.55;100.00
17054;BME280;8643;48.824;11.422;2022-11-15T01:37:38;96839.53;;;2.65;100.00
17054;BME280;8643;48.824;11.422;2022-11-15T01:40:25;96834.59;;;2.72;100.00
17054;BME280;8643;48.824;11.422;2022-11-15T01:43:26;96826.69;;;2.81;100.00
17054;BME280;8643;48.824;11.422;2022-11-15T01:46:27;96822.84;;;2.87;100.00
17054;BME280;8643;48.824;11.422;2022-11-15T01:49:22;96822.53;;;2.88;100.00
17054;BME280;8643;48.824;11.422;2022-11-15T01:52:13;96826.16;;;2.79;100.00
17054;BME280;8643;48.824;11.422;2022-11-15T01:55:08;96825.97;;;2.70;100.00
17054;BME280;8643;48.824;11.422;2022-11-15T01:57:59;96818.41;;;2.67;100.00
17054;BME280;8643;48.824;11.422;2022-11-15T02:00:50;96817.38;;;2.63;100.00
17054;BME280;8643;48.824;11.422;2022-11-15T02:03:44;96815.28;;;2.54;100.00
17054;BME280;8643;48.824;11.422;2022-11-15T02:06:34;96807.78;;;2.46;100.00
17054;BME280;8643;48.824;11.422;2022-11-15T02:09:23;96796.19;;;2.41;100.00
17054;BME280;8643;48.824;11.422;2022-11-15T02:12:13;96797.88;;;2.36;100.00
17054;BME280;8643;48.824;11.422;2022-11-15T02:15:02;96791.19;;;2.24;100.00
17054;BME280;8643;48.824;11.422;2022-11-15T02:18:11;96792.63;;;2.11;100.00
17054;BME280;8643;48.824;11.422;2022-11-15T02:21:17;96788.31;;;2.10;100.00
17054;BME280;8643;48.824;11.422;2022-11-15T02:24:31;96784.03;;;2.04;100.00
17054;BME280;8643;48.824;11.422;2022-11-15T02:30:42;96778.34;;;2.05;100.00
17054;BME280;8643;48.824;11.422;2022-11-15T02:33:41;96773.22;;;2.04;100.00
17054;BME280;8643;48.824;11.422;2022-11-15T02:36:40;96776.44;;;2.11;100.00
17054;BME280;8643;48.824;11.422;2022-11-15T02:39:35;96778.53;;;2.19;100.00
17054;BME280;8643;48.824;11.422;2022-11-15T02:42:28;96766.94;;;2.18;100.00
17054;BME280;8643;48.824;11.422;2022-11-15T02:45:40;96775.91;;;2.09;100.00
17054;BME280;8643;48.824;11.422;2022-11-15T02:48:31;96782.75;;;1.96;100.00
17054;BME280;8643;48.824;11.422;2022-11-15T02:51:19;96776.59;;;1.85;100.00
17054;BME280;8643;48.824;11.422;2022-11-15T02:54:09;96764.50;;;1.72;100.00
17054;BME280;8643;48.824;11.422;2022-11-15T02:57:04;96770.28;;;1.55;100.00
17054;BME280;8643;48.824;11.422;2022-11-15T03:00:06;96768.97;;;1.48;100.00
17054;BME280;8643;48.824;11.422;2022-11-15T03:03:47;96772.47;;;1.43;100.00
17054;BME280;8643;48.824;11.422;2022-11-15T03:06:45;96770.63;;;1.33;100.00
17054;BME280;8643;48.824;11.422;2022-11-15T03:09:42;96761.22;;;1.25;100.00
17054;BME280;8643;48.824;11.422;2022-11-15T03:12:40;96759.13;;;1.07;100.00
17054;BME280;8643;48.824;11.422;2022-11-15T03:15:31;96764.56;;;1.02;100.00
17054;BME280;8643;48.824;11.422;2022-11-15T03:18:23;96760.50;;;1.04;100.00
17054;BME280;8643;48.824;11.422;2022-11-15T03:21:21;96764.53;;;1.07;100.00
17054;BME280;8643;48.824;11.422;2022-11-15T03:24:20;96759.69;;;0.99;100.00
17054;BME280;8643;48.824;11.422;2022-11-15T03:27:15;96761.59;;;0.88;100.00
17054;BME280;8643;48.824;11.422;2022-11-15T03:30:07;96758.38;;;0.86;100.00
17054;BME280;8643;48.824;11.422;2022-11-15T03:32:57;96759.19;;;0.86;100.00
17054;BME280;8643;48.824;11.422;2022-11-15T03:35:48;96761.38;;;0.74;100.00
17054;BME280;8643;48.824;11.422;2022-11-15T03:38:38;96767.56;;;0.75;100.00
17054;BME280;8643;48.824;11.422;2022-11-15T03:41:33;96760.59;;;0.63;100.00
17054;BME280;8643;48.824;11.422;2022-11-15T03:44:35;96759.53;;;0.44;100.00
17054;BME280;8643;48.824;11.422;2022-11-15T03:47:29;96756.59;;;0.35;100.00
17054;BME280;8643;48.824;11.422;2022-11-15T03:50:21;96752.28;;;0.29;100.00
17054;BME280;8643;48.824;11.422;2022-11-15T03:53:10;96757.66;;;0.18;100.00
17054;BME280;8643;48.824;11.422;2022-11-15T03:55:59;96742.31;;;0.09;100.00
17054;BME280;8643;48.824;11.422;2022-11-15T03:58:47;96744.19;;;0.03;100.00
17054;BME280;8643;48.824;11.422;2022-11-15T04:01:35;96740.44;;;-0.06;100.00
17054;BME280;8643;48.824;11.422;2022-11-15T04:04:22;96740.69;;;-0.13;100.00
17054;BME280;8643;48.824;11.422;2022-11-15T04:07:10;96738.00;;;-0.13;100.00
17054;BME280;8643;48.824;11.422;2022-11-15T04:09:59;96732.09;;;-0.10;100.00
17054;BME280;8643;48.824;11.422;2022-11-15T04:12:49;96717.53;;;-0.14;100.00
17054;BME280;8643;48.824;11.422;2022-11-15T04:15:37;96721.03;;;-0.08;100.00
17054;BME280;8643;48.824;11.422;2022-11-15T04:18:23;96701.94;;;0.04;100.00
17054;BME280;8643;48.824;11.422;2022-11-15T04:21:12;96705.13;;;0.21;100.00
17054;BME280;8643;48.824;11.422;2022-11-15T04:24:16;96703.50;;;0.41;100.00
17054;BME280;8643;48.824;11.422;2022-11-15T04:27:05;96702.94;;;0.64;100.00
17054;BME280;8643;48.824;11.422;2022-11-15T04:29:52;96707.06;;;1.12;100.00
17054;BME280;8643;48.824;11.422;2022-11-15T04:32:39;96707.84;;;1.17;100.00
17054;BME280;8643;48.824;11.422;2022-11-15T04:35:26;96704.72;;;0.89;100.00
17054;BME280;8643;48.824;11.422;2022-11-15T04:38:13;96710.69;;;0.76;100.00
17054;BME280;8643;48.824;11.422;2022-11-15T04:41:00;96714.50;;;0.60;100.00
17054;BME280;8643;48.824;11.422;2022-11-15T04:43:48;96718.84;;;0.56;100.00
17054;BME280;8643;48.824;11.422;2022-11-15T04:46:36;96723.41;;;0.60;100.00
17054;BME280;8643;48.824;11.422;2022-11-15T04:49:22;96718.03;;;0.65;100.00
17054;BME280;8643;48.824;11.422;2022-11-15T04:52:10;96724.78;;;0.52;100.00
17054;BME280;8643;48.824;11.422;2022-11-15T04:54:57;96721.53;;;0.45;100.00
17054;BME280;8643;48.824;11.422;2022-11-15T04:57:58;96705.69;;;0.23;100.00
17054;BME280;8643;48.824;11.422;2022-11-15T05:00:47;96709.19;;;0.03;100.00
17054;BME280;8643;48.824;11.422;2022-11-15T05:03:35;96708.66;;;-0.09;100.00
17054;BME280;8643;48.824;11.422;2022-11-15T05:06:39;96701.66;;;-0.15;100.00
17054;BME280;8643;48.824;11.422;2022-11-15T05:09:27;96698.44;;;-0.17;100.00
17054;BME280;8643;48.824;11.422;2022-11-15T05:12:13;96697.91;;;-0.14;100.00
17054;BME280;8643;48.824;11.422;2022-11-15T05:15:00;96705.13;;;-0.15;100.00
17054;BME280;8643;48.824;11.422;2022-11-15T05:17:49;96691.41;;;-0.13;100.00
17054;BME280;8643;48.824;11.422;2022-11-15T05:20:35;96695.19;;;-0.09;100.00
17054;BME280;8643;48.824;11.422;2022-11-15T05:23:24;96694.66;;;-0.11;100.00
17054;BME280;8643;48.824;11.422;2022-11-15T05:26:11;96696.28;;;-0.15;100.00
17054;BME280;8643;48.824;11.422;2022-11-15T05:28:59;96683.34;;;-0.08;100.00
17054;BME280;8643;48.824;11.422;2022-11-15T05:31:46;96682.28;;;-0.17;100.00
17054;BME280;8643;48.824;11.422;2022-11-15T05:34:34;96678.50;;;-0.22;100.00
17054;BME280;8643;48.824;11.422;2022-11-15T05:37:22;96670.97;;;-0.35;100.00
17054;BME280;8643;48.824;11.422;2022-11-15T05:40:09;96673.91;;;-0.37;100.00
17054;BME280;8643;48.824;11.422;2022-11-15T05:42:56;96663.41;;;-0.33;100.00
17054;BME280;8643;48.824;11.422;2022-11-15T05:45:44;96667.75;;;-0.32;100.00
17054;BME280;8643;48.824;11.422;2022-11-15T05:48:32;96656.97;;;-0.37;100.00
17054;BME280;8643;48.824;11.422;2022-11-15T05:51:23;96668.28;;;-0.40;100.00
17054;BME280;8643;48.824;11.422;2022-11-15T05:54:10;96670.44;;;-0.42;100.00
17054;BME280;8643;48.824;11.422;2022-11-15T05:56:58;96674.72;;;-0.46;100.00
17054;BME280;8643;48.824;11.422;2022-11-15T05:59:45;96670.66;;;-0.54;100.00
17054;BME280;8643;48.824;11.422;2022-11-15T06:02:32;96667.16;;;-0.60;100.00
17054;BME280;8643;48.824;11.422;2022-11-15T06:05:20;96665.78;;;-0.72;100.00
17054;BME280;8643;48.824;11.422;2022-11-15T06:08:08;96654.50;;;-0.75;100.00
17054;BME280;8643;48.824;11.422;2022-11-15T06:10:55;96656.94;;;-0.63;100.00
17054;BME280;8643;48.824;11.422;2022-11-15T06:13:42;96661.25;;;-0.41;100.00
17054;BME280;8643;48.824;11.422;2022-11-15T06:16:29;96668.00;;;-0.23;100.00
17054;BME280;8643;48.824;11.422;2022-11-15T06:19:17;96660.72;;;-0.28;100.00
17054;BME280;8643;48.824;11.422;2022-11-15T06:22:04;96654.81;;;-0.40;100.00
17054;BME280;8643;48.824;11.422;2022-11-15T06:24:52;96654.25;;;-0.52;100.00
17054;BME280;8643;48.824;11.422;2022-11-15T06:27:39;96656.69;;;-0.56;100.00
17054;BME280;8643;48.824;11.422;2022-11-15T06:30:27;96661.25;;;-0.57;100.00
17054;BME280;8643;48.824;11.422;2022-11-15T06:33:14;96661.25;;;-0.62;100.00
17054;BME280;8643;48.824;11.422;2022-11-15T06:36:01;96663.41;;;-0.59;100.00
17054;BME280;8643;48.824;11.422;2022-11-15T06:38:49;96667.75;;;-0.42;100.00
17054;BME280;8643;48.824;11.422;2022-11-15T06:41:37;96663.72;;;-0.19;100.00
17054;BME280;8643;48.824;11.422;2022-11-15T06:44:24;96672.56;;;-0.08;100.00
17054;BME280;8643;48.824;11.422;2022-11-15T06:47:11;96673.94;;;-0.01;100.00
17054;BME280;8643;48.824;11.422;2022-11-15T06:49:58;96676.63;;;-0.01;100.00
17054;BME280;8643;48.824;11.422;2022-11-15T06:52:45;96676.88;;;0.13;100.00
17054;BME280;8643;48.824;11.422;2022-11-15T06:55:33;96684.69;;;0.15;100.00
17054;BME280;8643;48.824;11.422;2022-11-15T06:58:22;96686.56;;;0.20;100.00
17054;BME280;8643;48.824;11.422;2022-11-15T07:01:11;96691.97;;;0.25;100.00
17054;BME280;8643;48.824;11.422;2022-11-15T07:03:59;96690.34;;;0.24;100.00
17054;BME280;8643;48.824;11.422;2022-11-15T07:06:46;96684.41;;;0.22;100.00
17054;BME280;8643;48.824;11.422;2022-11-15T07:09:33;96687.38;;;0.20;100.00
17054;BME280;8643;48.824;11.422;2022-11-15T07:12:21;96683.88;;;0.25;100.00
17054;BME280;8643;48.824;11.422;2022-11-15T07:15:09;96686.53;;;0.40;100.00
17054;BME280;8643;48.824;11.422;2022-11-15T07:18:00;96678.44;;;0.45;100.00
17054;BME280;8643;48.824;11.422;2022-11-15T07:20:47;96670.59;;;0.59;100.00
17054;BME280;8643;48.824;11.422;2022-11-15T07:23:36;96667.31;;;0.78;100.00
17054;BME280;8643;48.824;11.422;2022-11-15T07:26:24;96666.94;;;1.05;100.00
17054;BME280;8643;48.824;11.422;2022-11-15T07:29:11;96668.09;;;1.38;100.00
17054;BME280;8643;48.824;11.422;2022-11-15T07:31:59;96680.94;;;1.57;100.00
17054;BME280;8643;48.824;11.422;2022-11-15T07:34:46;96680.78;;;1.77;100.00
17054;BME280;8643;48.824;11.422;2022-11-15T07:37:33;96690.47;;;1.83;100.00
17054;BME280;8643;48.824;11.422;2022-11-15T07:40:20;96684.22;;;1.88;100.00
17054;BME280;8643;48.824;11.422;2022-11-15T07:43:08;96672.44;;;2.08;100.00
17054;BME280;8643;48.824;11.422;2022-11-15T07:45:56;96687.63;;;2.33;100.00
17054;BME280;8643;48.824;11.422;2022-11-15T07:48:45;96684.63;;;2.64;100.00
17054;BME280;8643;48.824;11.422;2022-11-15T07:51:33;96674.03;;;2.92;100.00
17054;BME280;8643;48.824;11.422;2022-11-15T07:54:20;96676.53;;;3.51;100.00
17054;BME280;8643;48.824;11.422;2022-11-15T07:57:07;96673.22;;;3.73;100.00
17054;BME280;8643;48.824;11.422;2022-11-15T07:59:56;96663.41;;;4.29;100.00
17054;BME280;8643;48.824;11.422;2022-11-15T08:02:43;96663.88;;;5.92;100.00
17054;BME280;8643;48.824;11.422;2022-11-15T08:05:32;96657.28;;;7.76;100.00
17054;BME280;8643;48.824;11.422;2022-11-15T08:08:20;96653.34;;;8.47;100.00
17054;BME280;8643;48.824;11.422;2022-11-15T08:11:06;96648.47;;;9.09;100.00
17054;BME280;8643;48.824;11.422;2022-11-15T08:13:54;96653.59;;;9.91;100.00
17054;BME280;8643;48.824;11.422;2022-11-15T08:16:41;96653.91;;;10.90;100.00
17054;BME280;8643;48.824;11.422;2022-11-15T08:19:27;96651.16;;;11.39;100.00
17054;BME280;8643;48.824;11.422;2022-11-15T08:22:16;96647.94;;;11.62;97.98
17054;BME280;8643;48.824;11.422;2022-11-15T08:25:03;96654.94;;;11.47;92.98
17054;BME280;8643;48.824;11.422;2022-11-15T08:27:52;96661.34;;;11.51;98.40
17054;BME280;8643;48.824;11.422;2022-11-15T08:30:42;96649.34;;;11.55;97.74
17054;BME280;8643;48.824;11.422;2022-11-15T08:33:31;96645.56;;;12.13;96.29
17054;BME280;8643;48.824;11.422;2022-11-15T08:36:20;96638.97;;;11.89;93.73
17054;BME280;8643;48.824;11.422;2022-11-15T08:39:10;96635.81;;;12.44;96.16
17054;BME280;8643;48.824;11.422;2022-11-15T08:41:58;96635.81;;;12.16;96.33
17054;BME280;8643;48.824;11.422;2022-11-15T08:44:45;96631.72;;;11.69;94.95
17054;BME280;8643;48.824;11.422;2022-11-15T08:47:32;96628.63;;;12.39;93.64
17054;BME280;8643;48.824;11.422;2022-11-15T08:50:20;96623.88;;;11.96;94.88
17054;BME280;8643;48.824;11.422;2022-11-15T08:53:08;96621.31;;;12.59;91.27
17054;BME280;8643;48.824;11.422;2022-11-15T08:55:56;96620.16;;;12.60;92.96
17054;BME280;8643;48.824;11.422;2022-11-15T08:58:43;96617.13;;;12.34;91.31
17054;BME280;8643;48.824;11.422;2022-11-15T09:01:30;96614.75;;;11.01;98.21
17054;BME280;8643;48.824;11.422;2022-11-15T09:04:18;96618.91;;;10.16;100.00
17054;BME280;8643;48.824;11.422;2022-11-15T09:07:05;96605.91;;;9.59;100.00
17054;BME280;8643;48.824;11.422;2022-11-15T09:09:52;96598.28;;;8.92;100.00
17054;BME280;8643;48.824;11.422;2022-11-15T09:12:40;96595.28;;;8.38;100.00
17054;BME280;8643;48.824;11.422;2022-11-15T09:15:27;96595.19;;;7.99;100.00
17054;BME280;8643;48.824;11.422;2022-11-15T09:18:14;96596.03;;;7.65;100.00
17054;BME280;8643;48.824;11.422;2022-11-15T09:21:01;96590.56;;;7.39;100.00
17054;BME280;8643;48.824;11.422;2022-11-15T09:23:50;96591.53;;;7.34;100.00
17054;BME280;8643;48.824;11.422;2022-11-15T09:26:37;96595.03;;;7.34;100.00
17054;BME280;8643;48.824;11.422;2022-11-15T09:29:26;96582.56;;;7.42;100.00
17054;BME280;8643;48.824;11.422;2022-11-15T09:32:13;96578.41;;;7.45;100.00
17054;BME280;8643;48.824;11.422;2022-11-15T09:35:00;96577.91;;;7.43;100.00
17054;BME280;8643;48.824;11.422;2022-11-15T09:37:47;96572.97;;;7.45;100.00
17054;BME280;8643;48.824;11.422;2022-11-15T09:40:41;96567.97;;;7.38;100.00
17054;BME280;8643;48.824;11.422;2022-11-15T09:43:38;96569.72;;;7.43;100.00
17054;BME280;8643;48.824;11.422;2022-11-15T09:46:42;96564.59;;;7.59;100.00
17054;BME280;8643;48.824;11.422;2022-11-15T09:49:23;96562.19;;;7.75;100.00
17054;BME280;8643;48.824;11.422;2022-11-15T09:52:08;96557.19;;;7.94;100.00
17054;BME280;8643;48.824;11.422;2022-11-15T09:54:41;96547.22;;;7.98;100.00
17054;BME280;8643;48.824;11.422;2022-11-15T09:57:31;96542.59;;;7.99;100.00
17054;BME280;8643;48.824;11.422;2022-11-15T10:00:09;96543.84;;;8.01;100.00
17054;BME280;8643;48.824;11.422;2022-11-15T10:03:12;96546.09;;;8.08;100.00
17054;BME280;8643;48.824;11.422;2022-11-15T10:05:45;96547.00;;;8.21;100.00
17054;BME280;8643;48.824;11.422;2022-11-15T10:08:46;96544.41;;;8.24;100.00
17054;BME280;8643;48.824;11.422;2022-11-15T10:11:19;96538.13;;;8.41;100.00
17054;BME280;8643;48.824;11.422;2022-11-15T10:14:10;96541.97;;;8.49;100.00
17054;BME280;8643;48.824;11.422;2022-11-15T10:17:30;96536.53;;;8.49;100.00
17054;BME280;8643;48.824;11.422;2022-11-15T10:20:17;96521.53;;;8.55;100.00
17054;BME280;8643;48.824;11.422;2022-11-15T10:22:50;96514.78;;;8.61;100.00
17054;BME280;8643;48.824;11.422;2022-11-15T10:25:22;96502.41;;;8.64;100.00
17054;BME280;8643;48.824;11.422;2022-11-15T10:27:58;96494.50;;;8.71;100.00
17054;BME280;8643;48.824;11.422;2022-11-15T10:30:33;96488.25;;;8.71;100.00
17054;BME280;8643;48.824;11.422;2022-11-15T10:35:42;96481.94;;;8.79;100.00
17054;BME280;8643;48.824;11.422;2022-11-15T10:38:12;96476.88;;;8.90;100.00
17054;BME280;8643;48.824;11.422;2022-11-15T10:40:41;96470.81;;;8.84;100.00
17054;BME280;8643;48.824;11.422;2022-11-15T10:43:16;96458.75;;;8.85;100.00
17054;BME280;8643;48.824;11.422;2022-11-15T10:45:46;96455.97;;;8.94;100.00
17054;BME280;8643;48.824;11.422;2022-11-15T10:48:24;96458.28;;;9.04;100.00
17054;BME280;8643;48.824;11.422;2022-11-15T10:50:55;96442.56;;;9.22;100.00
17054;BME280;8643;48.824;11.422;2022-11-15T10:53:31;96439.63;;;9.27;100.00
17054;BME280;8643;48.824;11.422;2022-11-15T10:56:05;96438.75;;;9.35;100.00
17054;BME280;8643;48.824;11.422;2022-11-15T10:58:38;96437.06;;;9.43;100.00
17054;BME280;8643;48.824;11.422;2022-11-15T11:01:17;96428.13;;;9.55;100.00
17054;BME280;8643;48.824;11.422;2022-11-15T11:04:00;96421.28;;;9.61;100.00
17054;BME280;8643;48.824;11.422;2022-11-15T11:06:31;96416.63;;;9.62;100.00
17054;BME280;8643;48.824;11.422;2022-11-15T11:09:27;96417.66;;;9.69;100.00
17054;BME280;8643;48.824;11.422;2022-11-15T11:11:57;96421.19;;;9.70;100.00
17054;BME280;8643;48.824;11.422;2022-11-15T11:14:27;96410.50;;;9.65;100.00
17054;BME280;8643;48.824;11.422;2022-11-15T11:17:05;96402.13;;;9.49;100.00
17054;BME280;8643;48.824;11.422;2022-11-15T11:19:58;96407.09;;;9.34;100.00
17054;BME280;8643;48.824;11.422;2022-11-15T11:22:40;96402.31;;;9.31;100.00
17054;BME280;8643;48.824;11.422;2022-11-15T11:25:21;96411.13;;;9.49;100.00
17054;BME280;8643;48.824;11.422;2022-11-15T11:28:05;96411.38;;;9.57;100.00
17054;BME280;8643;48.824;11.422;2022-11-15T11:30:47;96409.56;;;9.61;100.00
17054;BME280;8643;48.824;11.422;2022-11-15T11:33:21;96411.94;;;9.62;100.00
17054;BME280;8643;48.824;11.422;2022-11-15T11:36:05;96409.78;;;9.56;100.00
17054;BME280;8643;48.824;11.422;2022-11-15T11:38:56;96404.41;;;9.47;100.00
17054;BME280;8643;48.824;11.422;2022-11-15T11:41:46;96402.41;;;9.35;100.00
17054;BME280;8643;48.824;11.422;2022-11-15T11:44:35;96402.53;;;9.39;100.00
17054;BME280;8643;48.824;11.422;2022-11-15T11:47:11;96404.41;;;9.47;100.00
17054;BME280;8643;48.824;11.422;2022-11-15T11:49:46;96401.25;;;9.57;100.00
17054;BME280;8643;48.824;11.422;2022-11-15T11:52:22;96399.06;;;9.63;100.00
17054;BME280;8643;48.824;11.422;2022-11-15T11:55:03;96387.69;;;9.61;100.00
17054;BME280;8643;48.824;11.422;2022-11-15T11:57:46;96378.03;;;9.63;100.00
17054;BME280;8643;48.824;11.422;2022-11-15T12:00:20;96371.88;;;9.79;100.00
17054;BME280;8643;48.824;11.422;2022-11-15T12:03:05;96362.44;;;9.88;100.00
17054;BME280;8643;48.824;11.422;2022-11-15T12:05:40;96361.53;;;10.09;100.00
17054;BME280;8643;48.824;11.422;2022-11-15T12:08:27;96360.44;;;10.63;100.00
17054;BME280;8643;48.824;11.422;2022-11-15T12:11:09;96353.84;;;12.13;100.00
17054;BME280;8643;48.824;11.422;2022-11-15T12:13:41;96348.13;;;13.74;99.30
17054;BME280;8643;48.824;11.422;2022-11-15T12:16:15;96346.16;;;15.08;91.34
17054;BME280;8643;48.824;11.422;2022-11-15T12:18:49;96340.34;;;15.54;86.98
17054;BME280;8643;48.824;11.422;2022-11-15T12:21:24;96335.53;;;16.34;82.44
17054;BME280;8643;48.824;11.422;2022-11-15T12:24:01;96333.81;;;15.70;82.51
17054;BME280;8643;48.824;11.422;2022-11-15T12:26:38;96331.69;;;15.56;82.84
17054;BME280;8643;48.824;11.422;2022-11-15T12:29:16;96333.97;;;15.47;83.94
17054;BME280;8643;48.824;11.422;2022-11-15T12:31:52;96332.47;;;15.94;79.93
17054;BME280;8643;48.824;11.422;2022-11-15T12:34:40;96329.56;;;16.87;75.45
17054;BME280;8643;48.824;11.422;2022-11-15T12:40:35;96333.81;;;16.74;76.61
17054;BME280;8643;48.824;11.422;2022-11-15T12:43:41;96326.19;;;16.56;75.14
17054;BME280;8643;48.824;11.422;2022-11-15T12:46:22;96331.19;;;16.99;74.29
17054;BME280;8643;48.824;11.422;2022-11-15T12:48:56;96327.41;;;17.50;70.34
17054;BME280;8643;48.824;11.422;2022-11-15T12:52:07;96331.00;;;18.48;66.67
17054;BME280;8643;48.824;11.422;2022-11-15T12:55:29;96326.28;;;18.02;67.90
17054;BME280;8643;48.824;11.422;2022-11-15T12:58:27;96321.34;;;19.07;65.11
17054;BME280;8643;48.824;11.422;2022-11-15T13:00:58;96323.34;;;19.06;64.39
17054;BME280;8643;48.824;11.422;2022-11-15T13:03:31;96317.19;;;18.08;65.90
17054;BME280;8643;48.824;11.422;2022-11-15T13:06:09;96313.19;;;17.81;66.46
17054;BME280;8643;48.824;11.422;2022-11-15T13:08:58;96316.41;;;18.04;65.76
17054;BME280;8643;48.824;11.422;2022-11-15T13:11:45;96307.47;;;19.10;62.63
17054;BME280;8643;48.824;11.422;2022-11-15T13:14:48;96308.47;;;18.35;65.36
17054;BME280;8643;48.824;11.422;2022-11-15T13:17:31;96306.47;;;18.36;64.50
17054;BME280;8643;48.824;11.422;2022-11-15T13:20:20;96314.00;;;18.39;64.34
17054;BME280;8643;48.824;11.422;2022-11-15T13:22:51;96311.63;;;18.26;61.94
17054;BME280;8643;48.824;11.422;2022-11-15T13:25:46;96312.97;;;19.21;57.64
17054;BME280;8643;48.824;11.422;2022-11-15T13:28:27;96310.06;;;19.46;57.18
17054;BME280;8643;48.824;11.422;2022-11-15T13:31:00;96298.63;;;19.33;57.19
17054;BME280;8643;48.824;11.422;2022-11-15T13:33:34;96306.88;;;19.44;55.91
17054;BME280;8643;48.824;11.422;2022-11-15T13:36:08;96310.59;;;19.19;58.05
17054;BME280;8643;48.824;11.422;2022-11-15T13:38:41;96301.25;;;18.59;60.04
17054;BME280;8643;48.824;11.422;2022-11-15T13:41:19;96306.50;;;18.00;61.29
17054;BME280;8643;48.824;11.422;2022-11-15T13:43:49;96300.16;;;17.85;63.03
17054;BME280;8643;48.824;11.422;2022-11-15T13:46:20;96303.34;;;17.90;62.21
17054;BME280;8643;48.824;11.422;2022-11-15T13:48:54;96301.69;;;17.71;61.64
17054;BME280;8643;48.824;11.422;2022-11-15T13:51:36;96306.06;;;18.30;59.37
17054;BME280;8643;48.824;11.422;2022-11-15T13:54:17;96299.75;;;18.26;58.67
17054;BME280;8643;48.824;11.422;2022-11-15T13:56:49;96300.56;;;18.16;61.22
17054;BME280;8643;48.824;11.422;2022-11-15T13:59:24;96292.59;;;17.74;62.09
17054;BME280;8643;48.824;11.422;2022-11-15T14:01:54;96285.84;;;17.36;63.05
17054;BME280;8643;48.824;11.422;2022-11-15T14:04:27;96278.28;;;16.34;69.12
17054;BME280;8643;48.824;11.422;2022-11-15T14:06:58;96280.28;;;16.37;69.16
17054;BME280;8643;48.824;11.422;2022-11-15T14:09:38;96280.91;;;16.79;68.65
17054;BME280;8643;48.824;11.422;2022-11-15T14:12:29;96270.94;;;16.63;68.70
17054;BME280;8643;48.824;11.422;2022-11-15T14:15:00;96261.13;;;16.77;68.27
17054;BME280;8643;48.824;11.422;2022-11-15T14:17:37;96253.44;;;17.29;66.57
17054;BME280;8643;48.824;11.422;2022-11-15T14:20:27;96253.84;;;17.53;66.16
17054;BME280;8643;48.824;11.422;2022-11-15T14:22:59;96247.06;;;17.11;69.94
17054;BME280;8643;48.824;11.422;2022-11-15T14:25:29;96246.72;;;17.37;69.72
17054;BME280;8643;48.824;11.422;2022-11-15T14:28:13;96245.16;;;17.65;65.90
17054;BME280;8643;48.824;11.422;2022-11-15T14:30:44;96247.13;;;17.61;64.24
17054;BME280;8643;48.824;11.422;2022-11-15T14:33:25;96242.78;;;17.56;65.54
17054;BME280;8643;48.824;11.422;2022-11-15T14:36:02;96243.53;;;17.35;68.74
17054;BME280;8643;48.824;11.422;2022-11-15T14:38:31;96251.38;;;17.01;67.17
17054;BME280;8643;48.824;11.422;2022-11-15T14:41:00;96249.97;;;16.44;69.70
17054;BME280;8643;48.824;11.422;2022-11-15T14:43:28;96245.75;;;15.54;73.90
17054;BME280;8643;48.824;11.422;2022-11-15T14:45:57;96245.41;;;13.93;79.33
17054;BME280;8643;48.824;11.422;2022-11-15T14:48:26;96252.13;;;12.60;88.23